Time;durP1;ratioP1;P1;durP2;ratioP2;P2;SDS_P1;SDS_P2;PMS_P1;PMS_P2;Temp;Humidity;BMP_temperature;BMP_pressure;BME280_temperature;BME280_humidity;BME280_pressure;Samples;Min_cycle;Max_cycle;Signal;HPM_P1;HPM_P2
2022/06/10 00:00:09;;;;;;;7.53;5.95;;;22.50;77.60;;;;;;1847647;77;21091;-64
2022/06/10 00:02:43;;;;;;;11.43;7.15;;;22.50;77.70;;;;;;1847621;76;21095;-64
2022/06/10 00:05:30;;;;;;;6.75;5.45;;;22.50;77.70;;;;;;1813570;79;21125;-64
2022/06/10 00:08:00;;;;;;;10.13;6.65;;;22.50;77.90;;;;;;1813320;79;21120;-65
2022/06/10 00:10:29;;;;;;;7.70;6.40;;;22.50;77.80;;;;;;1813346;79;21116;-64
2022/06/10 00:12:58;;;;;;;10.30;6.10;;;22.50;77.80;;;;;;1813219;79;21042;-64
2022/06/10 00:15:27;;;;;;;9.63;6.80;;;22.50;77.80;;;;;;1813265;79;21065;-64
2022/06/10 00:17:57;;;;;;;11.30;6.47;;;22.50;77.80;;;;;;1813202;78;21037;-64
2022/06/10 00:20:29;;;;;;;8.70;6.37;;;22.40;77.90;;;;;;1813111;79;21022;-64
2022/06/10 00:22:58;;;;;;;7.40;6.25;;;22.40;78.00;;;;;;1813115;79;21111;-64
2022/06/10 00:25:29;;;;;;;13.75;7.10;;;22.40;78.10;;;;;;1813184;79;21124;-64
2022/06/10 00:27:59;;;;;;;11.78;6.90;;;22.40;78.10;;;;;;1813255;79;21030;-64
2022/06/10 00:30:30;;;;;;;8.88;6.53;;;22.40;78.10;;;;;;1813392;79;21527;-64
2022/06/10 00:33:00;;;;;;;8.78;6.83;;;22.40;78.10;;;;;;1813231;79;21151;-64
2022/06/10 00:35:30;;;;;;;11.05;6.90;;;22.40;78.30;;;;;;1813236;79;21029;-64
2022/06/10 00:38:00;;;;;;;12.07;6.85;;;22.30;78.30;;;;;;1813106;79;21065;-64
2022/06/10 00:40:31;;;;;;;8.28;7.35;;;22.30;78.30;;;;;;1813248;79;21049;-64
2022/06/10 00:43:01;;;;;;;10.50;8.00;;;22.30;78.10;;;;;;1813140;79;21069;-64
2022/06/10 00:46:04;;;;;;;8.23;7.42;;;22.20;78.20;;;;;;1813176;78;21167;-64
2022/06/10 00:48:46;;;;;;;9.08;6.83;;;22.00;78.40;;;;;;1813012;78;21166;-64
2022/06/10 00:51:30;;;;;;;9.80;7.25;;;21.90;78.80;;;;;;1813176;79;21061;-64
2022/06/10 00:54:07;;;;;;;7.35;6.20;;;21.80;79.10;;;;;;1813287;79;21124;-64
2022/06/10 00:56:39;;;;;;;8.43;6.35;;;21.80;79.10;;;;;;1812788;78;21069;-64
2022/06/10 00:59:17;;;;;;;8.98;7.37;;;21.90;79.20;;;;;;1813178;79;21022;-64
2022/06/10 01:01:46;;;;;;;6.97;6.17;;;21.90;79.10;;;;;;1812896;79;21078;-64
2022/06/10 01:04:16;;;;;;;9.85;6.75;;;21.90;79.10;;;;;;1813141;78;21242;-64
2022/06/10 01:06:45;;;;;;;7.67;6.03;;;21.90;79.20;;;;;;1813108;79;21077;-64
2022/06/10 01:09:16;;;;;;;7.85;6.22;;;22.00;79.20;;;;;;1813181;79;21045;-64
2022/06/10 01:11:50;;;;;;;9.55;6.37;;;22.00;79.10;;;;;;1813201;79;21119;-64
2022/06/10 01:14:26;;;;;;;;;;;22.00;79.20;;;;;;1812368;79;21042;-64
2022/06/10 01:17:04;;;;;;;8.45;6.35;;;22.10;79.10;;;;;;1813196;79;20168;-64
2022/06/10 01:19:45;;;;;;;6.67;6.05;;;22.10;78.80;;;;;;1812483;79;21025;-64
2022/06/10 01:22:29;;;;;;;8.40;6.83;;;22.10;78.90;;;;;;1813209;79;21085;-64
2022/06/10 01:25:07;;;;;;;9.10;7.03;;;22.10;78.90;;;;;;1811537;79;21033;-64
2022/06/10 01:27:48;;;;;;;7.15;6.08;;;22.20;78.80;;;;;;1811985;79;21026;-64
2022/06/10 01:30:28;;;;;;;8.85;6.90;;;22.20;78.90;;;;;;1813112;79;21011;-64
2022/06/10 01:33:12;;;;;;;7.83;6.12;;;22.20;79.00;;;;;;1811272;79;21073;-64
2022/06/10 01:36:02;;;;;;;8.10;6.30;;;22.20;78.90;;;;;;1812564;79;21127;-64
2022/06/10 01:38:46;;;;;;;9.15;6.35;;;22.20;79.00;;;;;;1812926;78;21669;-64
2022/06/10 01:41:30;;;;;;;6.80;6.07;;;22.20;78.80;;;;;;1813462;79;21061;-64
2022/06/10 01:44:14;;;;;;;8.25;6.42;;;22.20;78.90;;;;;;1812790;79;21472;-64
2022/06/10 01:46:46;;;;;;;10.35;6.35;;;22.20;78.90;;;;;;1813165;79;21538;-64
2022/06/10 01:49:28;;;;;;;8.83;5.95;;;22.20;78.90;;;;;;1812631;79;21560;-65
2022/06/10 01:52:24;;;;;;;7.05;6.03;;;22.20;78.90;;;;;;1813258;79;21045;-64
2022/06/10 01:55:14;;;;;;;7.85;6.00;;;22.20;79.00;;;;;;1802079;78;21017;-64
2022/06/10 01:57:48;;;;;;;10.23;7.35;;;22.20;79.10;;;;;;1812515;79;21119;-64
2022/06/10 02:00:23;;;;;;;12.60;6.90;;;22.20;79.00;;;;;;1813363;79;21484;-65
2022/06/10 02:02:58;;;;;;;7.25;6.30;;;22.10;79.00;;;;;;1813394;79;21065;-64
2022/06/10 02:05:31;;;;;;;8.68;6.90;;;22.00;79.20;;;;;;1813195;78;21163;-64
2022/06/10 02:08:14;;;;;;;7.70;6.85;;;21.90;79.50;;;;;;1813297;79;21045;-65
2022/06/10 02:10:52;;;;;;;14.63;7.75;;;21.90;79.80;;;;;;1813202;79;21127;-65
2022/06/10 02:13:24;;;;;;;10.25;7.17;;;21.90;80.00;;;;;;1813191;78;21149;-64
2022/06/10 02:15:56;;;;;;;9.80;6.50;;;21.80;80.00;;;;;;1813123;79;21496;-64
2022/06/10 02:18:28;;;;;;;11.65;6.65;;;21.80;80.10;;;;;;1813182;79;21065;-64
2022/06/10 02:21:03;;;;;;;10.13;6.78;;;21.80;80.20;;;;;;1813304;79;21029;-64
2022/06/10 02:23:35;;;;;;;8.13;6.15;;;21.80;80.30;;;;;;1813190;79;21530;-64
2022/06/10 02:26:06;;;;;;;8.73;6.80;;;21.90;80.10;;;;;;1813233;79;21155;-64
2022/06/10 02:28:41;;;;;;;8.33;6.17;;;21.90;79.90;;;;;;1813280;79;21030;-65
2022/06/10 02:31:19;;;;;;;8.93;6.22;;;22.00;79.70;;;;;;1812332;78;21491;-65
2022/06/10 02:33:51;;;;;;;9.65;6.28;;;22.00;79.60;;;;;;1809591;79;21014;-65
2022/06/10 02:36:26;;;;;;;10.58;6.65;;;22.10;79.40;;;;;;1813269;79;21460;-65
2022/06/10 02:39:10;;;;;;;8.75;5.78;;;22.10;79.30;;;;;;1812926;79;21460;-65
2022/06/10 02:41:59;;;;;;;8.90;5.67;;;22.10;79.40;;;;;;1813524;79;21057;-65
2022/06/10 02:44:46;;;;;;;7.35;6.40;;;22.20;79.30;;;;;;1813260;79;21127;-65
2022/06/10 02:47:18;;;;;;;13.43;6.55;;;22.20;79.20;;;;;;1798399;79;21022;-65
2022/06/10 02:49:48;;;;;;;7.58;5.62;;;22.30;79.10;;;;;;1813004;78;21590;-65
2022/06/10 02:52:18;;;;;;;8.38;6.28;;;22.40;79.10;;;;;;1813137;79;21103;-65
2022/06/10 02:54:48;;;;;;;9.63;7.22;;;22.40;79.00;;;;;;1813128;78;21045;-65
2022/06/10 03:01:11;;;;;;;11.22;6.97;;;22.50;78.90;;;;;;1813070;79;21049;-65
2022/06/10 03:03:22;;;;;;;6.58;5.90;;;22.60;78.70;;;;;;1900593;75;21028;-64
2022/06/10 03:06:08;;;;;;;9.75;6.85;;;22.70;78.50;;;;;;1900034;74;21009;-65
2022/06/10 03:08:41;;;;;;;9.93;6.97;;;22.70;78.50;;;;;;1900472;75;21056;-65
2022/06/10 03:11:28;;;;;;;11.65;5.90;;;22.80;78.50;;;;;;1899968;75;21000;-65
2022/06/10 03:14:12;;;;;;;11.97;5.92;;;22.80;78.50;;;;;;1853245;75;21016;-65
2022/06/10 03:16:46;;;;;;;11.15;7.17;;;22.90;78.50;;;;;;1900048;75;21106;-65
2022/06/10 03:19:30;;;;;;;7.25;6.10;;;23.00;78.30;;;;;;1900605;75;21044;-65
2022/06/10 03:21:59;;;;;;;7.20;6.12;;;23.10;78.10;;;;;;1899740;75;21028;-65
2022/06/10 03:24:42;;;;;;;7.37;6.62;;;23.20;77.90;;;;;;1900350;75;21028;-65
2022/06/10 03:27:14;;;;;;;7.72;5.80;;;23.30;77.70;;;;;;1899171;75;21028;-65
2022/06/10 03:29:52;;;;;;;18.20;6.47;;;23.30;77.60;;;;;;1897090;75;21024;-65
2022/06/10 03:32:33;;;;;;;9.75;6.33;;;23.30;77.70;;;;;;1900425;75;21040;-65
2022/06/10 03:35:17;;;;;;;7.30;5.53;;;23.40;77.50;;;;;;1900288;75;21090;-65
2022/06/10 03:37:48;;;;;;;8.20;6.50;;;23.50;77.30;;;;;;1884424;75;21041;-65
2022/06/10 03:40:27;;;;;;;6.58;5.87;;;23.70;77.10;;;;;;1900587;75;21581;-65
2022/06/10 03:42:58;;;;;;;6.28;5.67;;;23.80;76.60;;;;;;1900614;75;21156;-65
2022/06/10 03:45:33;;;;;;;6.67;5.47;;;23.90;76.20;;;;;;1900688;75;21172;-66
2022/06/10 03:48:03;;;;;;;10.08;5.50;;;24.00;76.00;;;;;;1899786;74;21056;-65
2022/06/10 03:50:36;;;;;;;8.53;5.58;;;24.10;75.80;;;;;;1900726;75;21431;-65
2022/06/10 03:53:05;;;;;;;7.47;5.22;;;24.20;75.60;;;;;;1900727;75;21122;-65
2022/06/10 03:55:34;;;;;;;9.23;5.28;;;24.30;75.50;;;;;;1900763;75;21024;-65
2022/06/10 03:58:04;;;;;;;8.03;5.53;;;24.40;75.20;;;;;;1900733;75;21032;-65
2022/06/10 04:00:33;;;;;;;6.35;5.75;;;24.50;74.80;;;;;;1900571;75;21024;-65
2022/06/10 04:03:03;;;;;;;5.67;5.17;;;24.60;74.30;;;;;;1922415;73;21040;-65
2022/06/10 04:05:33;;;;;;;9.55;5.25;;;24.60;73.70;;;;;;1923164;74;20997;-65
2022/06/10 04:08:03;;;;;;;5.47;4.62;;;24.80;73.20;;;;;;1923239;74;21055;-65
2022/06/10 04:10:33;;;;;;;7.20;6.50;;;24.80;72.60;;;;;;1923054;74;21005;-65
2022/06/10 04:13:03;;;;;;;11.40;7.00;;;24.80;72.70;;;;;;1923309;74;21460;-65
2022/06/10 04:15:32;;;;;;;9.60;5.72;;;24.90;72.70;;;;;;1923112;74;21083;-65
2022/06/10 04:18:04;;;;;;;8.28;5.03;;;25.00;72.30;;;;;;1923044;74;21045;-65
2022/06/10 04:20:35;;;;;;;9.65;5.22;;;25.00;71.90;;;;;;1922983;74;21483;-65
2022/06/10 04:23:05;;;;;;;10.98;5.67;;;25.00;71.80;;;;;;1923012;74;21517;-65
2022/06/10 04:25:38;;;;;;;5.40;4.70;;;25.10;71.90;;;;;;1922967;74;21078;-66
2022/06/10 04:28:08;;;;;;;6.53;5.08;;;25.10;71.60;;;;;;1923141;74;21074;-65
2022/06/10 04:30:40;;;;;;;7.37;5.67;;;25.20;71.50;;;;;;1923195;74;21157;-65
2022/06/10 04:33:09;;;;;;;5.80;5.28;;;25.30;71.20;;;;;;1923277;74;21117;-65
2022/06/10 04:35:39;;;;;;;7.60;5.03;;;25.30;71.20;;;;;;1923192;74;20981;-65
2022/06/10 04:38:09;;;;;;;5.25;4.80;;;25.40;70.80;;;;;;1923093;74;21001;-65
2022/06/10 04:40:39;;;;;;;5.47;4.97;;;25.40;70.70;;;;;;1923072;74;21021;-65
2022/06/10 04:43:09;;;;;;;6.12;4.80;;;25.30;70.70;;;;;;1923214;74;21111;-65
2022/06/10 04:45:42;;;;;;;7.30;5.08;;;25.30;70.80;;;;;;1923011;74;21142;-65
2022/06/10 04:48:12;;;;;;;6.60;5.37;;;25.30;70.90;;;;;;1923032;74;21033;-65
2022/06/10 04:50:42;;;;;;;10.00;6.42;;;25.40;70.50;;;;;;1922986;74;20997;-65
2022/06/10 04:53:12;;;;;;;6.15;5.05;;;25.50;70.30;;;;;;1922977;74;20993;-65
2022/06/10 04:55:41;;;;;;;8.60;4.90;;;25.50;70.10;;;;;;1923208;74;21009;-66
2022/06/10 04:58:10;;;;;;;6.53;5.47;;;25.50;69.70;;;;;;1923163;74;21075;-65
2022/06/10 05:00:42;;;;;;;7.37;5.37;;;25.50;69.70;;;;;;1923194;74;21448;-65
2022/06/10 05:03:12;;;;;;;7.00;5.12;;;25.50;69.70;;;;;;1905378;74;21145;-65
2022/06/10 05:05:43;;;;;;;26.23;17.87;;;25.60;70.20;;;;;;1900463;75;21001;-65
2022/06/10 05:08:14;;;;;;;6.87;5.55;;;25.60;69.80;;;;;;1900643;75;21028;-65
2022/06/10 05:10:44;;;;;;;7.62;4.75;;;25.60;69.50;;;;;;1900626;75;21079;-65
2022/06/10 05:13:16;;;;;;;7.45;6.28;;;25.70;69.70;;;;;;1900654;75;21049;-65
2022/06/10 05:15:45;;;;;;;11.68;5.05;;;25.80;69.50;;;;;;1900560;75;21036;-65
2022/06/10 05:18:16;;;;;;;9.75;5.20;;;25.90;69.10;;;;;;1900655;75;21048;-65
2022/06/10 05:20:47;;;;;;;8.15;5.05;;;25.90;68.90;;;;;;1900613;74;21087;-65
2022/06/10 05:23:18;;;;;;;9.23;5.72;;;26.00;68.90;;;;;;1900601;75;21106;-65
2022/06/10 05:25:48;;;;;;;10.23;5.37;;;26.00;68.90;;;;;;1900459;75;21110;-65
2022/06/10 05:28:18;;;;;;;6.05;4.60;;;26.10;68.90;;;;;;1900646;75;21102;-65
2022/06/10 05:30:47;;;;;;;6.42;4.90;;;26.20;69.00;;;;;;1900519;75;21012;-65
2022/06/10 05:33:17;;;;;;;5.97;5.37;;;26.30;68.60;;;;;;1900558;75;21020;-65
2022/06/10 05:35:47;;;;;;;5.90;4.75;;;26.50;68.30;;;;;;1900517;75;21008;-65
2022/06/10 05:38:16;;;;;;;7.47;4.85;;;26.60;68.00;;;;;;1900430;75;21032;-65
2022/06/10 05:40:46;;;;;;;5.90;4.53;;;26.70;67.30;;;;;;1900429;75;21036;-65
2022/06/10 05:43:16;;;;;;;9.30;4.67;;;26.80;66.90;;;;;;1900504;75;21106;-65
2022/06/10 05:45:45;;;;;;;5.75;4.37;;;26.90;66.40;;;;;;1900536;75;21012;-65
2022/06/10 05:48:15;;;;;;;6.08;4.30;;;27.00;66.30;;;;;;1900562;75;21036;-65
2022/06/10 05:50:44;;;;;;;7.72;4.53;;;27.00;65.90;;;;;;1900516;75;21091;-65
2022/06/10 05:53:15;;;;;;;5.75;4.30;;;27.00;65.10;;;;;;1900633;75;21040;-65
2022/06/10 05:55:44;;;;;;;5.90;4.50;;;26.90;65.10;;;;;;1900407;74;21028;-65
2022/06/10 05:58:14;;;;;;;7.53;5.00;;;26.80;65.20;;;;;;1900548;75;21055;-65
2022/06/10 06:00:44;;;;;;;6.90;4.83;;;26.80;65.40;;;;;;1900491;75;21021;-65
2022/06/10 06:03:13;;;;;;;6.97;4.45;;;26.70;65.60;;;;;;1900309;74;21053;-65
2022/06/10 06:05:43;;;;;;;4.50;4.10;;;26.70;65.50;;;;;;1900526;75;21463;-65
2022/06/10 06:08:13;;;;;;;7.05;4.62;;;26.70;65.30;;;;;;1900466;75;21033;-65
2022/06/10 06:10:42;;;;;;;4.42;3.72;;;26.60;64.90;;;;;;1900357;74;21095;-65
2022/06/10 06:13:11;;;;;;;7.67;4.33;;;26.50;64.90;;;;;;1900505;75;21066;-65
2022/06/10 06:15:40;;;;;;;13.38;5.00;;;26.40;64.90;;;;;;1900604;75;21087;-65
2022/06/10 06:18:10;;;;;;;5.00;4.20;;;26.30;65.00;;;;;;1900538;75;21004;-65
2022/06/10 06:20:39;;;;;;;5.33;3.60;;;26.40;65.10;;;;;;1900492;75;21102;-65
2022/06/10 06:23:09;;;;;;;10.32;5.17;;;26.40;65.20;;;;;;1900661;74;21529;-65
2022/06/10 06:25:38;;;;;;;6.20;4.35;;;26.40;65.20;;;;;;1900601;75;21145;-65
2022/06/10 06:28:08;;;;;;;4.58;3.77;;;26.50;64.90;;;;;;1900621;75;21026;-65
2022/06/10 06:30:38;;;;;;;4.78;4.22;;;26.50;65.10;;;;;;1900589;74;21102;-65
2022/06/10 06:33:09;;;;;;;8.38;4.17;;;26.60;65.30;;;;;;1900647;75;21094;-65
2022/06/10 06:35:39;;;;;;;8.40;4.92;;;26.70;65.20;;;;;;1900581;75;21110;-65
2022/06/10 06:38:09;;;;;;;6.90;4.83;;;26.70;65.10;;;;;;1900543;75;21008;-65
2022/06/10 06:40:41;;;;;;;6.15;5.08;;;26.80;65.10;;;;;;1900551;75;21008;-65
2022/06/10 06:43:10;;;;;;;6.75;3.72;;;26.70;64.80;;;;;;1900684;74;21471;-65
2022/06/10 06:45:40;;;;;;;6.22;4.95;;;26.80;64.60;;;;;;1900355;75;21121;-65
2022/06/10 06:48:10;;;;;;;6.37;4.10;;;26.90;63.90;;;;;;1900492;75;21048;-65
2022/06/10 06:50:45;;;;;;;6.28;4.05;;;27.00;63.80;;;;;;1900466;75;21019;-65
2022/06/10 06:53:14;;;;;;;5.15;3.92;;;26.90;63.60;;;;;;1900601;75;21470;-65
2022/06/10 06:55:43;;;;;;;7.60;4.37;;;26.90;63.70;;;;;;1900484;75;21072;-65
2022/06/10 06:58:15;;;;;;;6.08;4.65;;;26.90;63.90;;;;;;1900388;75;21131;-65
2022/06/10 07:00:45;;;;;;;5.72;4.28;;;27.00;64.00;;;;;;1900473;75;21577;-65
2022/06/10 07:03:14;;;;;;;12.13;4.97;;;27.10;63.80;;;;;;1900364;75;21040;-65
2022/06/10 07:05:44;;;;;;;5.97;4.28;;;27.30;63.70;;;;;;1900330;75;21083;-66
2022/06/10 07:08:13;;;;;;;5.47;3.80;;;27.50;63.50;;;;;;1900489;75;21032;-66
2022/06/10 07:10:43;;;;;;;4.12;3.72;;;27.60;63.30;;;;;;1900411;75;21056;-66
2022/06/10 07:13:12;;;;;;;4.80;3.90;;;27.90;62.80;;;;;;1900553;75;21094;-66
2022/06/10 07:15:43;;;;;;;4.37;3.90;;;28.00;62.40;;;;;;1900433;75;21054;-66
2022/06/10 07:18:12;;;;;;;8.93;4.53;;;28.20;61.60;;;;;;1900680;75;21032;-66
2022/06/10 07:20:42;;;;;;;10.13;5.03;;;28.40;61.10;;;;;;1900546;74;21032;-66
2022/06/10 07:23:11;;;;;;;4.25;3.85;;;28.60;60.50;;;;;;1900513;75;21044;-66
2022/06/10 07:25:41;;;;;;;5.92;4.10;;;28.60;60.20;;;;;;1900530;75;21083;-66
2022/06/10 07:28:14;;;;;;;6.72;4.53;;;28.70;60.00;;;;;;1900561;75;21541;-66
2022/06/10 07:30:44;;;;;;;5.05;4.17;;;28.80;59.80;;;;;;1900408;75;21040;-66
2022/06/10 07:33:14;;;;;;;10.30;4.65;;;28.90;59.30;;;;;;1900489;75;21024;-66
2022/06/10 07:35:44;;;;;;;5.92;4.03;;;29.00;58.90;;;;;;1900486;75;21028;-66
2022/06/10 07:38:13;;;;;;;5.12;4.53;;;29.10;59.50;;;;;;1900349;75;21009;-66
2022/06/10 07:43:33;;;;;;;8.65;3.90;;;29.30;58.80;;;;;;1900347;75;21052;-66
2022/06/10 07:46:03;;;;;;;9.98;5.03;;;29.10;58.60;;;;;;1900253;75;21169;-66
2022/06/10 07:48:33;;;;;;;7.50;4.03;;;29.00;58.90;;;;;;1900416;74;21032;-66
2022/06/10 07:51:03;;;;;;;7.05;4.58;;;28.80;59.30;;;;;;1900371;75;21028;-66
2022/06/10 07:53:32;;;;;;;7.17;4.30;;;28.80;59.70;;;;;;1900351;75;21012;-66
2022/06/10 07:56:01;;;;;;;5.47;4.00;;;28.70;59.50;;;;;;1900165;75;21068;-66
2022/06/10 07:58:31;;;;;;;5.70;4.00;;;28.70;59.60;;;;;;1900332;75;21074;-66
2022/06/10 08:01:00;;;;;;;6.20;4.47;;;28.70;59.40;;;;;;1900239;75;21111;-66
2022/06/10 08:03:30;;;;;;;8.60;4.42;;;28.80;59.40;;;;;;1899739;74;21031;-65
2022/06/10 08:05:59;;;;;;;5.67;4.47;;;28.80;59.30;;;;;;1897029;76;21082;-66
2022/06/10 08:08:29;;;;;;;6.67;4.70;;;28.70;59.30;;;;;;1897201;76;21094;-66
2022/06/10 08:10:58;;;;;;;20.90;6.83;;;28.60;59.60;;;;;;1897221;76;21024;-65
2022/06/10 08:13:47;;;;;;;5.62;4.37;;;28.50;59.80;;;;;;1897145;75;21091;-66
2022/06/10 08:16:18;;;;;;;5.15;3.80;;;28.50;59.80;;;;;;1874560;76;21048;-65
2022/06/10 08:18:48;;;;;;;4.37;3.90;;;28.40;59.70;;;;;;1874525;76;21503;-65
2022/06/10 08:24:06;;;;;;;5.72;4.45;;;28.60;59.50;;;;;;1874544;76;21035;-65
2022/06/10 08:26:36;;;;;;;6.72;5.10;;;28.80;59.20;;;;;;1874301;76;21028;-65
2022/06/10 08:29:07;;;;;;;5.05;4.37;;;29.00;58.90;;;;;;1874282;75;21003;-66
2022/06/10 08:31:37;;;;;;;5.15;4.37;;;29.20;58.40;;;;;;1874405;76;21035;-66
2022/06/10 08:34:06;;;;;;;7.12;4.25;;;29.30;57.00;;;;;;1874229;76;21089;-66
2022/06/10 08:36:37;;;;;;;13.53;4.45;;;29.50;56.50;;;;;;1874256;76;21101;-65
2022/06/10 08:39:06;;;;;;;12.20;7.50;;;29.50;56.50;;;;;;1874222;76;21023;-65
2022/06/10 08:41:44;;;;;;;10.03;4.85;;;29.60;56.30;;;;;;1874157;76;21165;-65
2022/06/10 08:44:17;;;;;;;11.57;6.05;;;29.70;55.80;;;;;;1874235;76;21187;-65
2022/06/10 08:47:05;;;;;;;8.85;4.78;;;29.80;56.30;;;;;;1874074;76;21043;-66
2022/06/10 08:49:46;;;;;;;11.53;6.37;;;29.90;56.10;;;;;;1874210;75;21130;-66
2022/06/10 08:52:39;;;;;;;11.20;5.33;;;29.90;56.10;;;;;;1874066;76;21555;-65
2022/06/10 08:55:20;;;;;;;9.68;6.05;;;30.00;55.90;;;;;;1874180;76;21048;-65
2022/06/10 08:57:50;;;;;;;10.82;7.45;;;30.00;55.40;;;;;;1874007;76;21631;-65
2022/06/10 09:00:28;;;;;;;18.02;12.37;;;29.90;55.40;;;;;;1874255;76;21047;-65
2022/06/10 09:03:03;;;;;;;13.35;10.40;;;29.90;55.30;;;;;;1873949;75;21059;-66
2022/06/10 09:05:38;;;;;;;7.28;5.55;;;29.90;54.90;;;;;;1873117;76;21075;-66
2022/06/10 09:08:10;;;;;;;6.60;5.05;;;29.80;54.70;;;;;;1842220;76;21107;-59
2022/06/10 09:10:54;;;;;;;6.33;4.65;;;29.70;54.80;;;;;;1873122;76;21059;-58
2022/06/10 09:13:35;;;;;;;11.73;5.87;;;29.60;55.10;;;;;;1873924;76;21478;-57
2022/06/10 09:16:19;;;;;;;10.90;4.35;;;29.50;55.30;;;;;;1853223;76;21037;-57
2022/06/10 09:18:56;;;;;;;5.25;4.55;;;29.30;55.60;;;;;;1846903;78;21017;-57
2022/06/10 09:21:40;;;;;;;5.95;4.70;;;29.20;55.80;;;;;;1846750;78;21029;-59
2022/06/10 09:24:11;;;;;;;7.45;5.22;;;29.10;55.70;;;;;;1846816;77;21095;-59
2022/06/10 09:26:45;;;;;;;7.40;5.65;;;29.10;56.00;;;;;;1845654;77;21025;-60
2022/06/10 09:29:16;;;;;;;5.40;4.87;;;29.10;56.00;;;;;;1846786;78;21044;-61
2022/06/10 09:31:51;;;;;;;10.35;5.25;;;29.20;55.90;;;;;;1847113;78;21028;-60
2022/06/10 09:34:32;;;;;;;8.73;4.92;;;29.40;55.80;;;;;;1846381;77;21116;-58
2022/06/10 09:37:06;;;;;;;13.78;7.87;;;29.60;55.20;;;;;;1846697;77;21028;-59
2022/06/10 09:42:35;;;;;;;7.85;4.97;;;30.00;54.50;;;;;;1846585;77;21048;-58
2022/06/10 09:45:16;;;;;;;6.17;4.97;;;30.10;54.20;;;;;;1846228;76;21001;-60
2022/06/10 09:48:00;;;;;;;9.75;5.50;;;30.20;54.20;;;;;;1846253;77;21198;-59
2022/06/10 09:50:35;;;;;;;9.63;5.80;;;30.30;53.90;;;;;;1846736;77;21076;-59
2022/06/10 09:53:19;;;;;;;12.70;7.10;;;30.30;53.20;;;;;;1846817;78;21048;-62
2022/06/10 09:56:26;;;;;;;10.95;6.45;;;30.30;52.70;;;;;;1846836;77;21115;-62
2022/06/10 09:59:07;;;;;;;8.50;6.25;;;30.30;53.50;;;;;;1846174;77;21580;-58
2022/06/10 10:01:39;;;;;;;8.90;5.08;;;30.10;53.00;;;;;;1845890;77;21029;-57
2022/06/10 10:04:20;;;;;;;6.12;4.97;;;30.00;53.40;;;;;;1846694;77;21064;-57
2022/06/10 10:07:00;;;;;;;12.55;5.92;;;30.00;53.60;;;;;;1846166;78;21033;-58
2022/06/10 10:09:46;;;;;;;8.80;5.95;;;30.00;53.80;;;;;;1846670;77;21096;-58
2022/06/10 10:12:31;;;;;;;8.28;5.70;;;30.00;53.90;;;;;;1846197;76;21033;-63
2022/06/10 10:15:25;;;;;;;11.15;5.53;;;30.10;54.10;;;;;;1847128;76;21076;-63
2022/06/10 10:18:09;;;;;;;12.53;5.42;;;30.10;54.20;;;;;;1855782;77;21075;-64
2022/06/10 10:20:58;;;;;;;6.70;5.50;;;30.20;54.20;;;;;;1855666;77;21075;-63
2022/06/10 10:23:35;;;;;;;5.80;5.12;;;30.40;53.70;;;;;;1856198;77;21091;-59
2022/06/10 10:26:08;;;;;;;7.78;6.05;;;30.50;53.10;;;;;;1855490;77;21126;-59
2022/06/10 10:28:39;;;;;;;6.45;5.25;;;30.60;53.20;;;;;;1856283;76;21530;-62
2022/06/10 10:31:13;;;;;;;22.30;20.37;;;30.60;52.70;;;;;;1856098;77;21174;-60
2022/06/10 10:33:43;;;;;;;8.88;5.05;;;30.70;52.60;;;;;;1856197;77;21044;-63
2022/06/10 10:36:24;;;;;;;6.47;5.35;;;30.70;52.30;;;;;;1856126;77;21056;-60
2022/06/10 10:38:54;;;;;;;7.22;5.62;;;30.60;52.20;;;;;;1854658;77;21064;-60
2022/06/10 10:41:28;;;;;;;8.80;5.22;;;30.50;52.50;;;;;;1856011;77;21459;-62
2022/06/10 10:44:04;;;;;;;10.13;5.55;;;30.30;52.40;;;;;;1855720;76;21562;-63
2022/06/10 10:46:43;;;;;;;7.60;5.80;;;30.30;52.50;;;;;;1856057;77;21088;-60
2022/06/10 10:49:24;;;;;;;6.20;5.15;;;30.10;52.40;;;;;;1856156;77;21078;-59
2022/06/10 10:51:55;;;;;;;6.60;5.40;;;30.00;52.50;;;;;;1855923;77;21024;-61
2022/06/10 10:54:33;;;;;;;6.87;5.40;;;29.80;53.00;;;;;;1856120;77;21024;-61
2022/06/10 10:57:04;;;;;;;10.03;5.60;;;29.70;53.20;;;;;;1856036;77;21024;-63
2022/06/10 10:59:36;;;;;;;5.22;4.72;;;29.70;53.60;;;;;;1856030;77;21538;-66
2022/06/10 11:02:35;;;;;;;6.40;5.40;;;29.70;53.90;;;;;;1856259;77;21538;-62
2022/06/10 11:05:32;;;;;;;8.63;5.60;;;29.80;53.00;;;;;;1836920;76;21060;-61
2022/06/10 11:08:19;;;;;;;8.88;5.62;;;29.80;53.10;;;;;;1856617;77;21576;-66
2022/06/10 11:11:13;;;;;;;25.92;6.92;;;29.80;53.60;;;;;;1856880;77;21141;-66
2022/06/10 11:13:48;;;;;;;9.50;6.25;;;29.80;53.80;;;;;;1856889;77;21074;-66
2022/06/10 11:16:34;;;;;;;13.70;5.95;;;29.80;53.90;;;;;;1852333;75;21119;-66
2022/06/10 11:19:07;;;;;;;6.55;5.40;;;29.90;54.00;;;;;;1894649;75;21005;-65
2022/06/10 11:21:57;;;;;;;9.45;5.45;;;29.90;53.40;;;;;;1895005;76;21048;-66
2022/06/10 11:24:30;;;;;;;7.62;5.97;;;29.80;53.30;;;;;;1827651;78;21143;-66
2022/06/10 11:27:02;;;;;;;11.12;7.00;;;29.80;53.60;;;;;;1827573;78;21128;-66
2022/06/10 11:29:31;;;;;;;6.05;5.53;;;29.80;53.50;;;;;;1827630;78;21476;-66
2022/06/10 11:32:21;;;;;;;7.53;5.60;;;29.80;53.50;;;;;;1827537;78;21111;-66
2022/06/10 11:34:58;;;;;;;7.33;6.20;;;29.70;53.40;;;;;;1807914;79;21153;-67
2022/06/10 11:37:31;;;;;;;8.38;7.55;;;29.70;53.60;;;;;;1807644;78;21082;-66
2022/06/10 11:40:18;;;;;;;7.37;6.30;;;29.70;53.70;;;;;;1807699;79;21046;-67
2022/06/10 11:43:05;;;;;;;8.53;6.45;;;29.70;53.40;;;;;;1807621;79;21085;-67
2022/06/10 11:45:43;;;;;;;10.15;5.90;;;29.70;54.00;;;;;;1769755;80;21080;-67
2022/06/10 11:48:24;;;;;;;8.63;5.17;;;29.70;54.00;;;;;;1806825;78;21508;-67
2022/06/10 11:51:17;;;;;;;9.73;5.40;;;29.80;54.30;;;;;;1807493;78;21101;-67
2022/06/10 11:54:18;;;;;;;8.90;5.97;;;30.00;54.00;;;;;;1807671;78;21519;-67
2022/06/10 12:00:06;;;;;;;20.37;9.30;;;30.40;52.30;;;;;;1807828;78;21046;-67
2022/06/10 12:02:55;;;;;;;13.65;8.08;;;30.50;51.70;;;;;;1807564;79;21128;-67
2022/06/10 12:05:43;;;;;;;8.48;5.50;;;30.70;50.80;;;;;;1807785;78;21052;-66
2022/06/10 12:08:35;;;;;;;12.95;7.37;;;30.70;50.00;;;;;;1807759;79;21109;-66
2022/06/10 12:11:19;;;;;;;6.60;5.42;;;30.80;50.20;;;;;;1807706;79;21070;-66
2022/06/10 12:13:52;;;;;;;10.38;5.67;;;31.00;50.80;;;;;;1807818;78;21144;-66
2022/06/10 12:16:21;;;;;;;7.83;5.50;;;31.00;51.00;;;;;;1766025;81;21491;-66
2022/06/10 12:18:52;;;;;;;7.12;5.40;;;30.90;50.60;;;;;;1807751;79;21051;-66
2022/06/10 12:21:24;;;;;;;7.80;5.00;;;30.70;51.20;;;;;;1769596;81;21142;-67
2022/06/10 12:23:53;;;;;;;7.40;5.65;;;30.50;51.60;;;;;;1807766;79;21096;-67
2022/06/10 12:26:37;;;;;;;5.17;4.62;;;30.30;51.90;;;;;;1769700;80;21107;-67
2022/06/10 12:29:32;;;;;;;5.20;4.65;;;30.10;52.10;;;;;;1807818;78;21046;-67
2022/06/10 12:32:05;;;;;;;;;;;29.90;52.60;;;;;;1772322;81;21155;-67
2022/06/10 12:34:48;;;;;;;8.95;6.28;;;29.70;53.10;;;;;;1752683;81;20155;-67
2022/06/10 12:37:23;;;;;;;7.73;6.30;;;29.60;53.60;;;;;;1785219;80;21033;-67
2022/06/10 12:40:01;;;;;;;7.15;5.72;;;29.50;53.10;;;;;;1831391;78;21636;-67
2022/06/10 12:42:51;;;;;;;8.28;4.85;;;29.40;53.50;;;;;;1832750;77;21036;-67
2022/06/10 12:45:32;;;;;;;16.32;4.78;;;29.20;56.00;;;;;;1832891;77;21068;-67
2022/06/10 12:48:05;;;;;;;16.00;3.85;;;28.90;56.70;;;;;;1831697;78;21060;-67
2022/06/10 12:50:37;;;;;;;20.00;4.92;;;28.60;58.40;;;;;;1758623;81;21091;-67
2022/06/10 12:53:31;;;;;;;10.40;3.37;;;28.10;59.20;;;;;;1758890;80;21076;-67
2022/06/10 12:56:21;;;;;;;13.43;2.60;;;27.50;60.00;;;;;;1833002;78;21134;-67
2022/06/10 12:58:53;;;;;;;16.00;3.17;;;26.90;60.80;;;;;;1800825;80;21068;-66
2022/06/10 13:01:30;;;;;;;14.00;3.77;;;26.50;62.00;;;;;;1781001;80;21056;-66
2022/06/10 13:04:05;;;;;;;4.15;2.10;;;26.10;65.20;;;;;;1801016;78;21060;-67
2022/06/10 13:06:44;;;;;;;;;;;25.30;70.10;;;;;;1803597;79;21079;-67
2022/06/10 13:09:16;;;;;;;5.87;3.35;;;24.30;70.70;;;;;;1800930;78;20162;-67
2022/06/10 13:11:50;;;;;;;5.53;3.77;;;23.70;72.50;;;;;;1801001;80;21498;-68
2022/06/10 13:14:37;;;;;;;;;;;23.30;74.60;;;;;;1803629;78;21044;-67
2022/06/10 13:17:21;;;;;;;8.65;5.17;;;23.10;76.00;;;;;;1800497;80;20412;-67
2022/06/10 13:20:02;;;;;;;5.97;5.37;;;22.90;73.90;;;;;;1800994;78;21064;-67
2022/06/10 13:22:38;;;;;;;5.78;4.60;;;23.00;74.60;;;;;;1800924;78;21020;-66
2022/06/10 13:25:13;;;;;;;10.48;5.75;;;23.00;73.20;;;;;;1801029;78;21049;-66
2022/06/10 13:27:43;;;;;;;;;;;23.10;73.20;;;;;;1803593;80;21048;-66
2022/06/10 13:30:33;;;;;;;17.67;6.95;;;23.30;74.10;;;;;;1800875;78;20147;-66
2022/06/10 13:33:07;;;;;;;12.18;5.75;;;23.40;73.10;;;;;;1800949;78;21072;-66
2022/06/10 13:35:48;;;;;;;11.38;5.42;;;23.60;73.20;;;;;;1800765;80;21028;-66
2022/06/10 13:38:20;;;;;;;11.33;5.67;;;23.70;73.10;;;;;;1800876;78;21040;-66
2022/06/10 13:40:52;;;;;;;11.48;5.70;;;23.70;73.10;;;;;;1800921;78;21127;-66